createdAt,value
2018-06-03T00:00:31.149Z,0.00
2018-06-03T00:01:31.140Z,0.00
2018-06-03T00:02:31.123Z,0.00
2018-06-03T00:03:31.104Z,0.00
2018-06-03T00:04:31.093Z,0.00
2018-06-03T00:05:31.074Z,0.00
2018-06-03T00:06:31.067Z,0.00
2018-06-03T00:07:31.048Z,0.00
2018-06-03T00:08:31.039Z,0.00
2018-06-03T00:09:31.017Z,0.00
2018-06-03T00:10:31.006Z,0.00
2018-06-03T00:11:30.991Z,0.00
2018-06-03T00:12:30.973Z,0.00
2018-06-03T00:13:30.958Z,0.00
2018-06-03T00:14:30.949Z,0.00
2018-06-03T00:15:30.933Z,0.00
2018-06-03T00:16:30.919Z,0.00
2018-06-03T00:17:30.904Z,0.00
2018-06-03T00:18:30.894Z,0.00
2018-06-03T00:19:30.871Z,0.00
2018-06-03T00:20:30.858Z,0.00
2018-06-03T00:21:30.846Z,0.00
2018-06-03T00:22:30.827Z,0.00
2018-06-03T00:23:30.814Z,0.00
2018-06-03T00:24:30.804Z,0.00
2018-06-03T00:25:30.785Z,0.00
2018-06-03T00:26:30.769Z,0.00
2018-06-03T00:27:30.753Z,0.00
2018-06-03T00:28:30.740Z,0.00
2018-06-03T00:29:30.728Z,0.00
2018-06-03T00:30:30.722Z,0.00
2018-06-03T00:31:30.702Z,0.00
2018-06-03T00:32:30.678Z,0.00
2018-06-03T00:33:30.691Z,0.00
2018-06-03T00:34:30.656Z,0.00
2018-06-03T00:35:30.643Z,0.00
2018-06-03T00:36:30.624Z,0.00
2018-06-03T00:37:30.607Z,0.00
2018-06-03T00:38:30.592Z,0.00
2018-06-03T00:39:30.582Z,0.00
2018-06-03T00:40:30.650Z,0.00
2018-06-03T00:41:30.547Z,0.00
2018-06-03T00:42:30.538Z,0.00
2018-06-03T00:43:30.525Z,0.00
2018-06-03T00:44:30.507Z,0.00
2018-06-03T00:45:30.489Z,0.00
2018-06-03T00:46:30.486Z,0.00
2018-06-03T00:47:30.461Z,0.00
2018-06-03T00:48:30.451Z,0.00
2018-06-03T00:49:30.431Z,0.00
2018-06-03T00:50:30.416Z,0.00
2018-06-03T00:51:30.404Z,0.00
2018-06-03T00:52:30.390Z,0.00
2018-06-03T00:53:30.374Z,0.00
2018-06-03T00:54:30.361Z,0.00
2018-06-03T00:55:30.343Z,0.00
2018-06-03T00:56:30.333Z,0.00
2018-06-03T00:57:30.317Z,0.00
2018-06-03T00:58:30.298Z,0.00
2018-06-03T00:59:30.285Z,0.00
2018-06-03T01:00:30.275Z,0.00
2018-06-03T01:01:30.256Z,0.00
2018-06-03T01:02:30.239Z,0.00
2018-06-03T01:03:30.227Z,0.00
2018-06-03T01:04:30.217Z,0.00
2018-06-03T01:05:30.204Z,0.00
2018-06-03T01:06:30.182Z,0.00
2018-06-03T01:07:30.169Z,0.00
2018-06-03T01:08:30.165Z,0.00
2018-06-03T01:09:30.145Z,0.00
2018-06-03T01:10:30.130Z,0.00
2018-06-03T01:11:30.114Z,0.00
2018-06-03T01:12:30.098Z,0.00
2018-06-03T01:13:30.089Z,0.00
2018-06-03T01:14:30.069Z,0.00
2018-06-03T01:15:30.056Z,0.00
2018-06-03T01:16:30.040Z,0.00
2018-06-03T01:17:30.031Z,0.00
2018-06-03T01:18:30.011Z,0.00
2018-06-03T01:19:29.999Z,0.00
2018-06-03T01:20:29.982Z,0.00
2018-06-03T01:21:29.970Z,0.00
2018-06-03T01:22:29.957Z,0.00
2018-06-03T01:23:29.947Z,0.00
2018-06-03T01:24:29.931Z,0.00
2018-06-03T01:25:29.912Z,0.00
2018-06-03T01:26:29.905Z,0.00
2018-06-03T01:27:29.885Z,0.00
2018-06-03T01:28:29.872Z,0.00
2018-06-03T01:29:29.863Z,0.00
2018-06-03T01:30:29.849Z,0.00
2018-06-03T01:31:29.831Z,0.00
2018-06-03T01:32:29.821Z,0.00
2018-06-03T01:33:29.802Z,0.00
2018-06-03T01:34:29.792Z,0.00
2018-06-03T01:35:29.780Z,0.00
2018-06-03T01:36:29.764Z,0.00
2018-06-03T01:37:29.744Z,0.00
2018-06-03T01:38:29.738Z,0.00
2018-06-03T01:39:29.725Z,0.00
2018-06-03T01:40:29.709Z,0.00
2018-06-03T01:41:29.694Z,0.00
2018-06-03T01:42:29.684Z,0.00
2018-06-03T01:43:29.661Z,0.00
2018-06-03T01:44:29.655Z,0.00
2018-06-03T01:45:29.637Z,0.00
2018-06-03T01:46:29.626Z,0.00
2018-06-03T01:47:29.611Z,0.00
2018-06-03T01:48:29.597Z,0.00
2018-06-03T01:49:29.578Z,0.00
2018-06-03T01:50:29.568Z,0.00
2018-06-03T01:51:29.550Z,0.00
2018-06-03T01:52:29.542Z,0.00
2018-06-03T01:53:29.524Z,0.00
2018-06-03T01:54:29.514Z,0.00
2018-06-03T01:55:29.496Z,0.00
2018-06-03T01:56:29.483Z,0.00
2018-06-03T01:57:29.470Z,0.00
2018-06-03T01:58:29.450Z,0.00
2018-06-03T01:59:29.435Z,0.00
2018-06-03T02:00:29.430Z,0.00
2018-06-03T02:01:29.408Z,0.00
2018-06-03T02:02:29.400Z,0.00
2018-06-03T02:03:29.383Z,0.00
2018-06-03T02:04:29.364Z,0.00
2018-06-03T02:05:29.352Z,0.00
2018-06-03T02:06:29.339Z,0.00
2018-06-03T02:07:29.319Z,0.00
2018-06-03T02:08:29.307Z,0.00
2018-06-03T02:09:29.291Z,0.00
2018-06-03T02:10:29.281Z,0.00
2018-06-03T02:11:29.269Z,0.00
2018-06-03T02:12:29.250Z,0.00
2018-06-03T02:13:29.242Z,0.00
2018-06-03T02:14:29.222Z,0.00
2018-06-03T02:15:29.212Z,0.00
2018-06-03T02:16:29.199Z,0.00
2018-06-03T02:17:29.183Z,0.00
2018-06-03T02:18:29.166Z,0.00
2018-06-03T02:19:29.154Z,0.00
2018-06-03T02:20:29.134Z,0.00
2018-06-03T02:21:29.125Z,0.00
2018-06-03T02:22:29.103Z,0.00
2018-06-03T02:23:29.091Z,0.00
2018-06-03T02:24:29.075Z,0.00
2018-06-03T02:25:29.059Z,0.00
2018-06-03T02:26:29.049Z,0.00
2018-06-03T02:27:29.030Z,0.00
2018-06-03T02:28:29.018Z,0.00
2018-06-03T02:29:29.005Z,0.00
2018-06-03T02:30:28.989Z,0.00
2018-06-03T02:31:28.977Z,0.00
2018-06-03T02:32:28.966Z,0.00
2018-06-03T02:33:28.944Z,0.00
2018-06-03T02:34:28.932Z,0.00
2018-06-03T02:35:28.919Z,0.00
2018-06-03T02:36:28.898Z,0.00
2018-06-03T02:37:28.887Z,0.00
2018-06-03T02:38:28.873Z,0.00
2018-06-03T02:39:28.857Z,0.00
2018-06-03T02:40:28.841Z,0.00
2018-06-03T02:41:28.833Z,0.00
2018-06-03T02:42:28.817Z,0.00
2018-06-03T02:43:28.805Z,0.00
2018-06-03T02:44:28.793Z,0.00
2018-06-03T02:45:28.774Z,0.00
2018-06-03T02:46:28.758Z,0.00
2018-06-03T02:47:28.795Z,0.00
2018-06-03T02:48:28.728Z,0.00
2018-06-03T02:49:28.715Z,0.00
2018-06-03T02:50:28.701Z,0.00
2018-06-03T02:51:28.681Z,0.00
2018-06-03T02:52:28.671Z,0.00
2018-06-03T02:53:28.649Z,0.00
2018-06-03T02:54:28.633Z,0.00
2018-06-03T02:55:28.629Z,0.00
2018-06-03T02:56:28.606Z,0.00
2018-06-03T02:57:28.595Z,0.00
2018-06-03T02:58:28.575Z,0.00
2018-06-03T02:59:28.560Z,0.00
2018-06-03T03:00:28.553Z,0.00
2018-06-03T03:01:28.531Z,0.00
2018-06-03T03:02:28.518Z,0.00
2018-06-03T03:03:28.502Z,0.00
2018-06-03T03:04:28.485Z,0.00
2018-06-03T03:05:28.468Z,0.00
2018-06-03T03:06:28.459Z,0.00
2018-06-03T03:07:28.447Z,0.00
2018-06-03T03:08:28.432Z,0.00
2018-06-03T03:09:28.415Z,0.00
2018-06-03T03:10:28.395Z,0.00
2018-06-03T03:11:28.384Z,0.00
2018-06-03T03:12:28.364Z,5.63
2018-06-03T03:13:28.353Z,5.63
2018-06-03T03:14:28.338Z,5.63
2018-06-03T03:15:28.327Z,5.63
2018-06-03T03:16:28.303Z,5.63
2018-06-03T03:17:28.295Z,5.63
2018-06-03T03:18:28.279Z,5.63
2018-06-03T03:19:28.260Z,11.25
2018-06-03T03:20:28.249Z,11.25
2018-06-03T03:21:28.228Z,11.25
2018-06-03T03:22:28.218Z,11.25
2018-06-03T03:23:28.205Z,11.25
2018-06-03T03:24:28.187Z,16.88
2018-06-03T03:25:28.171Z,16.88
2018-06-03T03:26:28.151Z,16.88
2018-06-03T03:27:28.138Z,16.88
2018-06-03T03:28:28.129Z,16.88
2018-06-03T03:29:28.113Z,22.50
2018-06-03T03:30:28.097Z,22.50
2018-06-03T03:31:28.077Z,22.50
2018-06-03T03:32:28.068Z,22.50
2018-06-03T03:33:28.052Z,28.13
2018-06-03T03:34:28.029Z,28.13
2018-06-03T03:35:28.013Z,28.13
2018-06-03T03:36:27.998Z,28.13
2018-06-03T03:37:27.988Z,33.75
2018-06-03T03:38:27.968Z,33.75
2018-06-03T03:39:27.956Z,33.75
2018-06-03T03:40:27.939Z,33.75
2018-06-03T03:41:27.927Z,39.38
2018-06-03T03:42:27.910Z,39.38
2018-06-03T03:43:27.892Z,39.38
2018-06-03T03:44:27.875Z,39.38
2018-06-03T03:45:27.862Z,45.00
2018-06-03T03:46:27.854Z,45.00
2018-06-03T03:47:27.831Z,45.00
2018-06-03T03:48:27.814Z,45.00
2018-06-03T03:49:27.815Z,50.63
2018-06-03T03:50:27.786Z,50.63
2018-06-03T03:51:27.770Z,50.63
2018-06-03T03:52:27.754Z,56.25
2018-06-03T03:53:27.742Z,56.25
2018-06-03T03:54:27.725Z,56.25
2018-06-03T03:55:27.715Z,56.25
2018-06-03T03:56:27.697Z,61.88
2018-06-03T03:57:27.683Z,61.88
2018-06-03T03:58:27.664Z,61.88
2018-06-03T03:59:27.649Z,67.50
2018-06-03T04:00:27.632Z,67.50
2018-06-03T04:01:27.622Z,67.50
2018-06-03T04:02:27.602Z,73.13
2018-06-03T04:03:27.593Z,73.13
2018-06-03T04:04:27.577Z,73.13
2018-06-03T04:05:27.561Z,78.75
2018-06-03T04:06:27.545Z,78.75
2018-06-03T04:07:27.532Z,78.75
2018-06-03T04:08:27.516Z,78.75
2018-06-03T04:09:27.495Z,84.38
2018-06-03T04:10:27.482Z,84.38
2018-06-03T04:11:27.475Z,84.38
2018-06-03T04:12:27.457Z,90.00
2018-06-03T04:13:27.435Z,90.00
2018-06-03T04:14:27.418Z,90.00
2018-06-03T04:15:27.409Z,95.63
2018-06-03T04:16:27.389Z,95.63
2018-06-03T04:17:27.380Z,95.63
2018-06-03T04:18:27.364Z,101.25
2018-06-03T04:19:27.351Z,101.25
2018-06-03T04:20:27.335Z,101.25
2018-06-03T04:21:27.314Z,101.25
2018-06-03T04:22:27.301Z,106.88
2018-06-03T04:23:27.284Z,106.88
2018-06-03T04:24:27.275Z,106.88
2018-06-03T04:25:27.252Z,106.88
2018-06-03T04:26:27.240Z,112.50
2018-06-03T04:27:27.227Z,112.50
2018-06-03T04:28:27.214Z,112.50
2018-06-03T04:29:27.198Z,112.50
2018-06-03T04:30:27.183Z,118.13
2018-06-03T04:31:27.169Z,118.13
2018-06-03T04:32:27.151Z,118.13
2018-06-03T04:33:27.135Z,118.13
2018-06-03T04:34:27.121Z,123.75
2018-06-03T04:35:27.108Z,123.75
2018-06-03T04:36:27.090Z,123.75
2018-06-03T04:37:27.080Z,123.75
2018-06-03T04:38:27.067Z,129.38
2018-06-03T04:39:27.051Z,129.38
2018-06-03T04:40:27.036Z,129.38
2018-06-03T04:41:27.017Z,129.38
2018-06-03T04:42:27.000Z,135.00
2018-06-03T04:43:26.993Z,135.00
2018-06-03T04:44:26.977Z,135.00
2018-06-03T04:45:26.965Z,135.00
2018-06-03T04:46:26.946Z,140.63
2018-06-03T04:47:26.933Z,140.63
2018-06-03T04:48:26.914Z,140.63
2018-06-03T04:49:26.898Z,146.25
2018-06-03T04:50:26.882Z,146.25
2018-06-03T04:51:26.871Z,146.25
2018-06-03T04:52:26.855Z,146.25
2018-06-03T04:53:26.837Z,146.25
2018-06-03T04:54:26.832Z,146.25
2018-06-03T04:55:26.812Z,146.25
2018-06-03T04:56:26.796Z,146.25
2018-06-03T04:57:26.790Z,151.88
2018-06-03T04:58:26.773Z,151.88
2018-06-03T04:59:26.755Z,151.88
2018-06-03T05:00:26.745Z,151.88
2018-06-03T05:01:26.726Z,157.50
2018-06-03T05:02:26.720Z,157.50
2018-06-03T05:03:26.698Z,157.50
2018-06-03T05:04:26.685Z,157.50
2018-06-03T05:05:26.675Z,163.13
2018-06-03T05:06:26.653Z,163.13
2018-06-03T05:07:26.640Z,163.13
2018-06-03T05:08:26.630Z,163.13
2018-06-03T05:09:26.618Z,163.13
2018-06-03T05:10:26.599Z,163.13
2018-06-03T05:11:26.583Z,168.75
2018-06-03T05:12:26.573Z,168.75
2018-06-03T05:13:26.557Z,168.75
2018-06-03T05:14:26.541Z,168.75
2018-06-03T05:15:26.531Z,174.38
2018-06-03T05:16:26.518Z,174.38
2018-06-03T05:17:26.506Z,174.38
2018-06-03T05:18:26.486Z,174.38
2018-06-03T05:19:26.472Z,180.00
2018-06-03T05:20:26.463Z,180.00
2018-06-03T05:21:26.447Z,180.00
2018-06-03T05:22:26.437Z,185.63
2018-06-03T05:23:26.440Z,185.63
2018-06-03T05:24:26.407Z,185.63
2018-06-03T05:25:26.436Z,185.63
2018-06-03T05:26:26.386Z,185.63
2018-06-03T05:27:26.364Z,185.63
2018-06-03T05:28:26.351Z,185.63
2018-06-03T05:29:26.342Z,185.63
2018-06-03T05:30:26.332Z,185.63
2018-06-03T05:31:26.312Z,191.25
2018-06-03T05:32:26.303Z,191.25
2018-06-03T05:33:26.285Z,191.25
2018-06-03T05:34:26.272Z,191.25
2018-06-03T05:35:26.260Z,196.88
2018-06-03T05:36:26.247Z,196.88
2018-06-03T05:37:26.234Z,196.88
2018-06-03T05:38:26.221Z,196.88
2018-06-03T05:39:26.208Z,196.88
2018-06-03T05:40:26.201Z,196.88
2018-06-03T05:41:26.189Z,202.50
2018-06-03T05:42:26.198Z,202.50
2018-06-03T05:43:26.157Z,202.50
2018-06-03T05:44:26.149Z,202.50
2018-06-03T05:45:26.141Z,202.50
2018-06-03T05:46:26.125Z,208.13
2018-06-03T05:47:26.106Z,208.13
2018-06-03T05:48:26.095Z,208.13
2018-06-03T05:49:26.085Z,208.13
2018-06-03T05:50:26.070Z,208.13
2018-06-03T05:51:26.057Z,213.75
2018-06-03T05:52:26.046Z,219.38
2018-06-03T05:53:26.041Z,219.38
2018-06-03T05:54:26.025Z,213.75
2018-06-03T05:55:26.009Z,213.75
2018-06-03T05:56:26.002Z,213.75
2018-06-03T05:57:25.984Z,213.75
2018-06-03T05:58:25.977Z,213.75
2018-06-03T05:59:25.966Z,219.38
2018-06-03T06:00:25.948Z,219.38
2018-06-03T06:01:25.940Z,219.38
2018-06-03T06:02:25.929Z,219.38
2018-06-03T06:03:25.929Z,219.38
2018-06-03T06:04:25.902Z,219.38
2018-06-03T06:05:25.932Z,219.38
2018-06-03T06:06:25.876Z,219.38
2018-06-03T06:07:25.867Z,219.38
2018-06-03T06:08:25.854Z,219.38
2018-06-03T06:09:25.850Z,219.38
2018-06-03T06:10:25.832Z,219.38
2018-06-03T06:11:25.822Z,219.38
2018-06-03T06:12:25.809Z,219.38
2018-06-03T06:13:25.797Z,219.38
2018-06-03T06:14:25.790Z,219.38
2018-06-03T06:15:25.780Z,219.38
2018-06-03T06:16:25.771Z,219.38
2018-06-03T06:17:25.752Z,219.38
2018-06-03T06:18:25.750Z,219.38
2018-06-03T06:19:25.729Z,225.00
2018-06-03T06:20:25.731Z,225.00
2018-06-03T06:21:25.710Z,225.00
2018-06-03T06:22:25.697Z,225.00
2018-06-03T06:23:25.684Z,225.00
2018-06-03T06:24:25.701Z,230.63
2018-06-03T06:25:25.668Z,230.63
2018-06-03T06:26:25.652Z,230.63
2018-06-03T06:27:25.643Z,230.63
2018-06-03T06:28:25.636Z,230.63
2018-06-03T06:29:25.659Z,230.63
2018-06-03T06:30:25.613Z,236.25
2018-06-03T06:31:25.602Z,236.25
2018-06-03T06:32:25.588Z,236.25
2018-06-03T06:33:25.575Z,236.25
2018-06-03T06:34:25.566Z,236.25
2018-06-03T06:35:25.550Z,241.88
2018-06-03T06:36:25.584Z,241.88
2018-06-03T06:37:25.531Z,241.88
2018-06-03T06:38:25.519Z,241.88
2018-06-03T06:39:25.530Z,241.88
2018-06-03T06:40:25.497Z,241.88
2018-06-03T06:41:25.493Z,241.88
2018-06-03T06:42:25.477Z,241.88
2018-06-03T06:43:25.471Z,241.88
2018-06-03T06:44:25.456Z,241.88
2018-06-03T06:45:25.456Z,241.88
2018-06-03T06:46:25.447Z,241.88
2018-06-03T06:47:25.428Z,241.88
2018-06-03T06:48:25.418Z,241.88
2018-06-03T06:49:25.417Z,241.88
2018-06-03T06:50:25.396Z,241.88
2018-06-03T06:51:25.390Z,241.88
2018-06-03T06:52:25.378Z,241.88
2018-06-03T06:53:25.372Z,236.25
2018-06-03T06:54:25.367Z,236.25
2018-06-03T06:55:25.348Z,241.88
2018-06-03T06:56:25.351Z,241.88
2018-06-03T06:57:25.338Z,241.88
2018-06-03T06:58:25.315Z,241.88
2018-06-03T06:59:25.309Z,241.88
2018-06-03T07:00:25.295Z,241.88
2018-06-03T07:01:25.289Z,241.88
2018-06-03T07:02:25.296Z,247.50
2018-06-03T07:03:25.271Z,247.50
2018-06-03T07:04:25.270Z,247.50
2018-06-03T07:05:25.248Z,247.50
2018-06-03T07:06:25.252Z,253.13
2018-06-03T07:07:25.236Z,253.13
2018-06-03T07:08:25.297Z,258.75
2018-06-03T07:09:25.212Z,258.75
2018-06-03T07:10:25.202Z,264.38
2018-06-03T07:11:25.188Z,270.00
2018-06-03T07:12:25.179Z,275.63
2018-06-03T07:13:25.173Z,275.63
2018-06-03T07:14:25.165Z,270.00
2018-06-03T07:15:25.154Z,264.38
2018-06-03T07:16:25.146Z,270.00
2018-06-03T07:17:25.142Z,281.25
2018-06-03T07:18:25.126Z,286.88
2018-06-03T07:19:25.164Z,292.50
2018-06-03T07:20:25.106Z,298.13
2018-06-03T07:21:25.098Z,303.75
2018-06-03T07:22:25.092Z,303.75
2018-06-03T07:23:25.087Z,303.75
2018-06-03T07:24:25.073Z,303.75
2018-06-03T07:25:25.065Z,303.75
2018-06-03T07:26:25.052Z,309.38
2018-06-03T07:27:25.045Z,309.38
2018-06-03T07:28:25.043Z,315.00
2018-06-03T07:29:25.030Z,315.00
2018-06-03T07:30:25.027Z,320.63
2018-06-03T07:31:25.011Z,320.63
2018-06-03T07:32:25.005Z,326.25
2018-06-03T07:33:24.999Z,326.25
2018-06-03T07:34:24.989Z,326.25
2018-06-03T07:35:24.984Z,326.25
2018-06-03T07:36:24.977Z,326.25
2018-06-03T07:37:24.971Z,326.25
2018-06-03T07:38:24.968Z,331.88
2018-06-03T07:39:24.961Z,331.88
2018-06-03T07:40:24.949Z,331.88
2018-06-03T07:41:24.952Z,331.88
2018-06-03T07:42:24.939Z,337.50
2018-06-03T07:43:24.941Z,337.50
2018-06-03T07:44:24.927Z,331.88
2018-06-03T07:45:24.920Z,343.13
2018-06-03T07:46:24.926Z,337.50
2018-06-03T07:47:24.914Z,337.50
2018-06-03T07:48:24.905Z,337.50
2018-06-03T07:49:24.906Z,343.13
2018-06-03T07:50:24.908Z,354.38
2018-06-03T07:51:24.896Z,360.00
2018-06-03T07:52:24.889Z,354.38
2018-06-03T07:53:24.881Z,348.75
2018-06-03T07:54:24.877Z,337.50
2018-06-03T07:55:24.869Z,343.13
2018-06-03T07:56:24.868Z,343.13
2018-06-03T07:57:24.877Z,343.13
2018-06-03T07:58:24.857Z,348.75
2018-06-03T07:59:24.850Z,354.38
2018-06-03T08:00:24.844Z,348.75
2018-06-03T08:01:24.840Z,343.13
2018-06-03T08:02:24.831Z,331.88
2018-06-03T08:03:24.825Z,331.88
2018-06-03T08:04:24.818Z,326.25
2018-06-03T08:05:24.821Z,331.88
2018-06-03T08:06:24.811Z,331.88
2018-06-03T08:07:24.805Z,331.88
2018-06-03T08:08:24.802Z,337.50
2018-06-03T08:09:24.798Z,337.50
2018-06-03T08:10:24.792Z,337.50
2018-06-03T08:11:24.789Z,337.50
2018-06-03T08:12:24.783Z,331.88
2018-06-03T08:13:24.777Z,331.88
2018-06-03T08:14:24.778Z,331.88
2018-06-03T08:15:24.776Z,331.88
2018-06-03T08:16:24.763Z,337.50
2018-06-03T08:17:24.766Z,337.50
2018-06-03T08:18:24.773Z,337.50
2018-06-03T08:19:24.767Z,337.50
2018-06-03T08:20:24.756Z,343.13
2018-06-03T08:21:24.747Z,343.13
2018-06-03T08:22:24.747Z,343.13
2018-06-03T08:23:24.741Z,343.13
2018-06-03T08:24:24.734Z,343.13
2018-06-03T08:25:24.727Z,343.13
2018-06-03T08:26:24.728Z,343.13
2018-06-03T08:27:24.731Z,348.75
2018-06-03T08:28:24.725Z,343.13
2018-06-03T08:29:24.716Z,337.50
2018-06-03T08:30:24.710Z,337.50
2018-06-03T08:31:24.715Z,337.50
2018-06-03T08:32:24.704Z,331.88
2018-06-03T08:33:24.701Z,326.25
2018-06-03T08:34:24.698Z,331.88
2018-06-03T08:35:24.697Z,331.88
2018-06-03T08:36:24.696Z,331.88
2018-06-03T08:37:24.687Z,337.50
2018-06-03T08:38:24.684Z,331.88
2018-06-03T08:39:24.681Z,337.50
2018-06-03T08:40:24.670Z,337.50
2018-06-03T08:41:24.661Z,337.50
2018-06-03T08:42:24.662Z,343.13
2018-06-03T08:43:24.660Z,343.13
2018-06-03T08:44:24.657Z,343.13
2018-06-03T08:45:24.654Z,343.13
2018-06-03T08:46:24.645Z,343.13
2018-06-03T08:47:24.648Z,343.13
2018-06-03T08:48:24.668Z,348.75
2018-06-03T08:49:24.637Z,348.75
2018-06-03T08:50:24.646Z,348.75
2018-06-03T08:51:24.628Z,354.38
2018-06-03T08:52:24.622Z,354.38
2018-06-03T08:53:24.618Z,354.38
2018-06-03T08:54:24.620Z,354.38
2018-06-03T08:55:24.628Z,365.63
2018-06-03T08:56:24.615Z,365.63
2018-06-03T08:57:24.606Z,360.00
2018-06-03T08:58:24.616Z,365.63
2018-06-03T08:59:24.602Z,365.63
2018-06-03T09:00:24.638Z,365.63
2018-06-03T09:01:24.595Z,365.63
2018-06-03T09:02:24.593Z,365.63
2018-06-03T09:03:24.584Z,376.88
2018-06-03T09:04:24.578Z,371.25
2018-06-03T09:05:24.587Z,371.25
2018-06-03T09:06:24.577Z,371.25
2018-06-03T09:07:24.567Z,382.50
2018-06-03T09:08:24.567Z,382.50
2018-06-03T09:09:24.563Z,388.13
2018-06-03T09:10:24.554Z,393.75
2018-06-03T09:11:24.554Z,388.13
2018-06-03T09:12:24.551Z,388.13
2018-06-03T09:13:24.541Z,382.50
2018-06-03T09:14:24.547Z,388.13
2018-06-03T09:15:24.543Z,388.13
2018-06-03T09:16:24.535Z,388.13
2018-06-03T09:17:24.535Z,388.13
2018-06-03T09:18:24.535Z,388.13
2018-06-03T09:19:24.522Z,393.75
2018-06-03T09:20:24.522Z,405.00
2018-06-03T09:21:24.516Z,393.75
2018-06-03T09:22:24.516Z,388.13
2018-06-03T09:23:24.509Z,388.13
2018-06-03T09:24:24.516Z,393.75
2018-06-03T09:25:24.503Z,388.13
2018-06-03T09:26:24.500Z,399.38
2018-06-03T09:27:24.503Z,393.75
2018-06-03T09:28:24.490Z,399.38
2018-06-03T09:29:24.488Z,405.00
2018-06-03T09:30:24.484Z,405.00
2018-06-03T09:31:24.487Z,410.63
2018-06-03T09:32:24.478Z,410.63
2018-06-03T09:33:24.475Z,405.00
2018-06-03T09:34:24.472Z,405.00
2018-06-03T09:35:24.468Z,399.38
2018-06-03T09:36:24.471Z,399.38
2018-06-03T09:37:24.459Z,399.38
2018-06-03T09:38:24.468Z,399.38
2018-06-03T09:39:24.452Z,399.38
2018-06-03T09:40:24.460Z,405.00
2018-06-03T09:41:24.446Z,410.63
2018-06-03T09:42:24.443Z,416.25
2018-06-03T09:43:24.451Z,427.50
2018-06-03T09:44:24.502Z,421.88
2018-06-03T09:45:24.433Z,427.50
2018-06-03T09:46:24.432Z,433.13
2018-06-03T09:47:24.430Z,433.13
2018-06-03T09:48:24.430Z,444.38
2018-06-03T09:49:24.426Z,461.25
2018-06-03T09:50:24.423Z,478.13
2018-06-03T09:51:24.416Z,489.38
2018-06-03T09:52:24.410Z,478.13
2018-06-03T09:53:24.407Z,461.25
2018-06-03T09:54:24.407Z,455.63
2018-06-03T09:55:24.401Z,455.63
2018-06-03T09:56:24.401Z,450.00
2018-06-03T09:57:24.401Z,444.38
2018-06-03T09:58:24.395Z,444.38
2018-06-03T09:59:24.388Z,444.38
2018-06-03T10:00:24.400Z,444.38
2018-06-03T10:01:24.382Z,444.38
2018-06-03T10:02:24.378Z,444.38
2018-06-03T10:03:24.379Z,444.38
2018-06-03T10:04:24.372Z,444.38
2018-06-03T10:05:24.372Z,444.38
2018-06-03T10:06:24.369Z,455.63
2018-06-03T10:07:24.366Z,455.63
2018-06-03T10:08:24.363Z,466.88
2018-06-03T10:09:24.366Z,478.13
2018-06-03T10:10:24.363Z,489.38
2018-06-03T10:11:24.363Z,500.63
2018-06-03T10:12:24.353Z,506.25
2018-06-03T10:13:24.353Z,511.88
2018-06-03T10:14:24.351Z,523.13
2018-06-03T10:15:24.355Z,528.75
2018-06-03T10:16:24.347Z,551.25
2018-06-03T10:17:24.351Z,556.88
2018-06-03T10:18:24.347Z,568.13
2018-06-03T10:19:24.340Z,579.38
2018-06-03T10:20:24.348Z,601.88
2018-06-03T10:21:24.381Z,630.00
2018-06-03T10:22:24.334Z,663.75
2018-06-03T10:23:24.337Z,691.88
2018-06-03T10:24:24.331Z,748.13
2018-06-03T10:25:24.328Z,810.00
2018-06-03T10:26:24.335Z,900.00
2018-06-03T10:27:24.334Z,1012.50
2018-06-03T10:28:24.334Z,1153.13
2018-06-03T10:29:17.719Z,1305.00
2018-06-03T10:30:17.693Z,1496.25
2018-06-03T10:32:10.589Z,1861.88
2018-06-03T10:33:10.576Z,2036.25
2018-06-03T10:35:03.466Z,2311.88
2018-06-03T10:36:03.456Z,2413.13
2018-06-03T10:37:03.460Z,2503.13
2018-06-03T10:38:03.456Z,2531.25
2018-06-03T10:39:03.459Z,2542.50
2018-06-03T10:40:03.476Z,2520.00
2018-06-03T10:41:03.463Z,2503.13
2018-06-03T10:42:03.463Z,2491.88
2018-06-03T10:43:03.459Z,2446.88
2018-06-03T10:44:03.462Z,2418.75
2018-06-03T10:45:03.465Z,2362.50
2018-06-03T10:46:03.472Z,2351.25
2018-06-03T10:47:03.466Z,2334.38
2018-06-03T10:48:03.482Z,2311.88
2018-06-03T10:49:03.475Z,2306.25
2018-06-03T10:50:03.472Z,2266.88
2018-06-03T10:51:03.479Z,2233.13
2018-06-03T10:52:03.476Z,2193.75
2018-06-03T10:53:03.479Z,2154.38
2018-06-03T10:54:03.488Z,2120.63
2018-06-03T10:55:03.485Z,2086.88
2018-06-03T10:56:03.498Z,2092.50
2018-06-03T10:57:03.498Z,2126.25
2018-06-03T10:58:03.498Z,2154.38
2018-06-03T10:59:03.501Z,2227.50
2018-06-03T11:00:03.506Z,2317.50
2018-06-03T11:01:03.505Z,2289.38
2018-06-03T11:02:03.505Z,2227.50
2018-06-03T11:03:03.515Z,2148.75
2018-06-03T11:04:03.519Z,2126.25
2018-06-03T11:05:03.525Z,2109.38
2018-06-03T11:06:03.531Z,2126.25
2018-06-03T11:07:03.534Z,2188.13
2018-06-03T11:08:03.546Z,2385.00
2018-06-03T11:09:03.541Z,1670.63
2018-06-03T11:10:03.551Z,1563.75
2018-06-03T11:11:03.550Z,7295.63
2018-06-03T11:12:03.555Z,7098.75
2018-06-03T11:13:03.566Z,860.63
2018-06-03T11:14:03.563Z,680.63
2018-06-03T11:15:03.566Z,2137.50
2018-06-03T11:16:03.569Z,5945.63
2018-06-03T11:17:03.575Z,5765.63
2018-06-03T11:18:03.586Z,5776.88
2018-06-03T11:19:03.583Z,5788.13
2018-06-03T11:20:03.592Z,5850.00
2018-06-03T11:21:03.598Z,5731.88
2018-06-03T11:22:03.598Z,5591.25
2018-06-03T11:23:03.599Z,5518.13
2018-06-03T11:24:03.605Z,5580.00
2018-06-03T11:25:03.608Z,5681.25
2018-06-03T11:26:03.615Z,5720.63
2018-06-03T11:27:03.621Z,5653.13
2018-06-03T11:28:03.628Z,5484.38
2018-06-03T11:29:03.641Z,5625.00
2018-06-03T11:30:03.637Z,5754.38
2018-06-03T11:31:03.652Z,5574.38
2018-06-03T11:32:03.652Z,5321.25
2018-06-03T11:33:03.660Z,5293.13
2018-06-03T11:34:03.656Z,5653.13
2018-06-03T11:35:03.676Z,5878.13
2018-06-03T11:36:03.679Z,5821.88
2018-06-03T11:37:03.737Z,5388.75
2018-06-03T11:38:03.698Z,5338.13
2018-06-03T11:39:03.701Z,5765.63
2018-06-03T11:40:03.709Z,5703.75
2018-06-03T11:41:03.721Z,5343.75
2018-06-03T11:42:03.777Z,5377.50
2018-06-03T11:43:03.731Z,5681.25
2018-06-03T11:44:03.740Z,5720.63
2018-06-03T11:45:03.747Z,5613.75
2018-06-03T11:46:03.769Z,5692.50
2018-06-03T11:47:03.764Z,5833.13
2018-06-03T11:48:03.769Z,5608.13
2018-06-03T11:49:03.785Z,5568.75
2018-06-03T11:50:03.785Z,5686.88
2018-06-03T11:51:03.797Z,5400.00
2018-06-03T11:52:03.804Z,5405.63
2018-06-03T11:53:03.817Z,5298.75
2018-06-03T11:54:03.824Z,5546.25
2018-06-03T11:55:03.827Z,5709.38
2018-06-03T11:56:03.837Z,5956.88
2018-06-03T11:57:03.846Z,6030.00
2018-06-03T11:58:03.862Z,5973.75
2018-06-03T11:59:03.917Z,6030.00
2018-06-03T12:00:03.876Z,5743.13
2018-06-03T12:01:03.890Z,5490.00
2018-06-03T12:02:03.890Z,5478.75
2018-06-03T12:03:03.903Z,5613.75
2018-06-03T12:04:03.910Z,5805.00
2018-06-03T12:05:03.920Z,5855.63
2018-06-03T12:06:03.931Z,5917.50
2018-06-03T12:07:03.943Z,5540.63
2018-06-03T12:08:03.953Z,5535.00
2018-06-03T12:09:03.955Z,5445.00
2018-06-03T12:10:03.971Z,5512.50
2018-06-03T12:11:03.978Z,5664.38
2018-06-03T12:12:03.990Z,5636.25
2018-06-03T12:13:03.993Z,5608.13
2018-06-03T12:14:04.000Z,5535.00
2018-06-03T12:15:04.010Z,5445.00
2018-06-03T12:16:04.025Z,5495.63
2018-06-03T12:17:04.026Z,5535.00
2018-06-03T12:18:04.041Z,5495.63
2018-06-03T12:19:04.045Z,5355.00
2018-06-03T12:20:04.055Z,5366.25
2018-06-03T12:21:04.071Z,5535.00
2018-06-03T12:22:04.076Z,5512.50
2018-06-03T12:23:04.087Z,5551.88
2018-06-03T12:24:04.099Z,5731.88
2018-06-03T12:25:04.100Z,5765.63
2018-06-03T12:26:04.115Z,5506.88
2018-06-03T12:27:04.119Z,5321.25
2018-06-03T12:28:04.128Z,5366.25
2018-06-03T12:29:04.136Z,5456.25
2018-06-03T12:30:04.145Z,5501.25
2018-06-03T12:31:04.154Z,5580.00
2018-06-03T12:32:04.170Z,5596.88
2018-06-03T12:33:04.180Z,5467.50
2018-06-03T12:34:04.179Z,5388.75
2018-06-03T12:35:04.193Z,5321.25
2018-06-03T12:36:04.253Z,5135.63
2018-06-03T12:37:04.205Z,5023.13
2018-06-03T12:38:04.215Z,5310.00
2018-06-03T12:39:04.224Z,5490.00
2018-06-03T12:40:04.241Z,5349.38